Tampa, FL

12:01 PM EDT on September 21, 2017 (GMT -0400)
The University of Tampa | | Change Station
Active Advisory: Hydrologic Statement

Elev 30 ft 27.95 °N, 82.46 °W | Updated 4 seconds ago

Clear
Clear
87.4 °F
Feels Like 91 °F
N
6.9
Wind Variable Wind from East
Gusts 12.0 mph

Today
High -- | Low -- °F
--% Chance of Precip.
Yesterday
High -- | Low -- °F
Precip. -- in
Pressure 30.02 in
Visibility 10.0 miles
Clouds Scattered Clouds 12000 ft
Scattered Clouds 25000 ft
Heat Index 91 °F
Dew Point 68 °F
Humidity 53%
Rainfall 0.00 in
Snow Depth Not available.
7:17 AM 7:27 PM
New Moon, 2% visible
METAR KTPA 211553Z 09007KT 10SM SCT120 SCT250 31/19 A3002 RMK AO2 SLP164 T03110189 $
Pressure 30.02 in
Visibility 10.0 miles
Clouds Scattered Clouds 12000 ft
Scattered Clouds 25000 ft
Heat Index 91 °F
Dew Point 68 °F
Humidity 53%
Rainfall 0.00 in
Snow Depth Not available.
7:17 AM 7:27 PM
New Moon, 2% visible
METAR KTPA 211553Z 09007KT 10SM SCT120 SCT250 31/19 A3002 RMK AO2 SLP164 T03110189 $

Get Your Daily Forecast Email!

Thanks for signing up!

Be on the lookout for a verification email in your inbox.

You'll start receiving severe weather alerts in your inbox..

×

10-Day Weather Forecast

Almanac

Astronomy

Sep. 21, 2017 Rise Set
Actual Time
Civil Twilight
Nautical Twilight
Astronomical Twilight
Moon
Length of Visible Light
Length of Day
Tomorrow will be .
, % of the Moon is Illuminated

Today's Extremes

State Highs State Lows

Community

WunderPhotos

Category 6

Welcome to Category 6. This is the collective home for Weather Underground's featured writeups by Dr. Jeff Masters (right), Bob Henson (left), Chris Burt, and other regular contributors.

Nearby

Air Quality

  Air Quality AQ Index Pollutant
Not available.

Snow Depth

Station Depth Elevation

Earthquake Activity

City Distance Mag. Time & Date
Minimum magnitude displayed is 2.5.

Coastal Water Temperatures

Place Temperature

Stations

Nearby Weather Stations

Station Location Temp. Windchill Dew Point Humidity Wind Precip. Elev Updated Type
                   

Watches & Warnings

Hydrologic Statement
Issued: 9:27 AM EDT Sep. 21, 2017 – National Weather Service

* until further notice.
* At 09 am Thursday the stage was 31.3 feet.
* No flooding is currently forecast.
* Flood stage is 32.0 feet.
* Forecast... the river will continue to fall slowly.
* Impact... at 32.0 feet... flooding begins at a trailer park
downstream from Morris bridge and just upstream from the northern
end of the Tampa bypass canal.




               Fld observed forecast 8am
location stg stg day time Fri Sat sun Mon Tue

Hillsborough
Morris brid 32.0 31.3 Thu 09 am 30.9 30.5 30.1 29.7 29.3




Lat... Lon 2806 8228 2806 8234 2811 8234 2811 8230